Nearby METAR Reports

 

KL35 - Big Bear City, California, USA
Distance from station: WNW 2mi, 4km
Updated: 08/18/2018 8:55pm
Clear
Clear
 Wind from calm
Wind: Calm
Temperature: 63°F , 17°C
Dew Point: 52°F , 11°C
Humidity: 68%
Barometer: 30.34 inHg , 1027.4 hPa
Clouds: Clear
Visibility: 10 miles , 16 km
2018/08/19 03:55 KL35 190355Z AUTO 00000KT 10SM CLR 17/11 A3034 RMK AO2
KSBD - San Bernardino, California, USA
Distance from station: WSW 28mi, 45km
Updated: 08/18/2018 8:50pm
Haze, Clear
Haze, Clear
 Wind from WSW
Wind: WSW 8 mph , 13 km/h
Temperature: 82°F , 28°C
Heat Index: 82°F , 28°C
Dew Point: 57°F , 14°C
Humidity: 42%
Barometer: 29.98 inHg , 1015.2 hPa
Summary: Haze
Clouds: Clear
Visibility: 5 miles , 8 km
2018/08/19 03:50 KSBD 190350Z 24007KT 5SM HZ SKC 28/14 A2998 RMK LAST
 
KVCV - Victorville, California, USA
Distance from station: NW 40mi, 64km
Updated: 08/18/2018 7:47pm
NOT Current
Clear
Clear
 Wind from WSW
Wind: WSW 12 mph , 19 km/h, Gust: 17 mph , 28 km/h
Barometer: 30.03 inHg , 1016.9 hPa
Clouds: Clear
Visibility: 10 miles , 16 km
2018/08/19 02:47 KVCV 190247Z 25010G15KT 10SM SKC A3003
KNXP - Twentynine Palms, California, USA
Distance from station: E 37mi, 59km
Updated: 08/18/2018 8:56pm
Clear
Clear
 Wind from WSW
Wind: WSW 14 mph , 22 km/h
Temperature: 97°F , 36°C
Dew Point: 54°F , 12°C
Humidity: 23%
Barometer: 29.99 inHg , 1015.6 hPa
Clouds: Clear
Visibility: 10 miles , 16 km
2018/08/19 03:56 KNXP 190356Z AUTO 25012KT 10SM CLR 36/12 A2999 RMK AO2 SLP112 T03560117 PNO $
 
KPSP - Palm Springs, California, USA
Distance from station: SSE 35mi, 57km
Updated: 08/18/2018 8:53pm
Clear
Clear
 Wind from NW
Wind: NW 15 mph , 24 km/h, Gust: 24 mph , 39 km/h
Temperature: 100°F , 38°C
Dew Point: 57°F , 14°C
Humidity: 24%
Barometer: 29.81 inHg , 1009.5 hPa
Clouds: Clear
Visibility: 10 miles , 16 km
2018/08/19 03:53 KPSP 190353Z 31013G21KT 10SM CLR 38/14 A2981 RMK AO2 PK WND 33027/0255 SLP090 T03780144
KONT - Ontario, California, USA
Distance from station: WSW 46mi, 74km
Updated: 08/18/2018 8:53pm
Clear
Clear
 Wind from W
Wind: W 9 mph , 15 km/h
Temperature: 79°F , 26°C
Dew Point: 63°F , 17°C
Humidity: 58%
Barometer: 29.97 inHg , 1014.9 hPa
Clouds: Clear
Visibility: 10 miles , 16 km
2018/08/19 03:53 KONT 190353Z 27008KT 10SM CLR 26/17 A2997 RMK AO2 SLP133 T02610167 $
 
KRIV - Riverside/March, California, USA
Distance from station: SW 37mi, 60km
Updated: 08/18/2018 8:58pm
Clear
Clear
 Wind from WNW
Wind: WNW 6 mph , 9 km/h
Temperature: 77°F , 25°C
Dew Point: 59°F , 15°C
Humidity: 54%
Barometer: 30.00 inHg , 1015.9 hPa
Clouds: Clear
Visibility: 10 miles , 16 km
2018/08/19 03:58 KRIV 190358Z AUTO 30005KT 10SM CLR 25/15 A3000 RMK AO2 SLP145 T02530153
KRAL - Riverside, California, USA
Distance from station: WSW 42mi, 68km
Updated: 08/18/2018 8:53pm
Clear
Clear
 Wind from W
Wind: W 8 mph , 13 km/h
Temperature: 77°F , 25°C
Dew Point: 63°F , 17°C
Humidity: 61%
Barometer: 29.98 inHg , 1015.2 hPa
Clouds: Clear
Visibility: 10 miles , 16 km
2018/08/19 03:53 KRAL 190353Z 27007KT 10SM CLR 25/17 A2998 RMK AO2 SLP135 T02500167
 
KDAG - Daggett, California, USA
Distance from station: N 41mi, 66km
Updated: 08/18/2018 8:50pm
Clear
Clear
 Wind from WSW
Wind: WSW 16 mph , 26 km/h
Temperature: 93°F , 34°C
Dew Point: 54°F , 12°C
Humidity: 26%
Barometer: 29.93 inHg , 1013.5 hPa
Clouds: Clear
Visibility: 10 miles , 16 km
2018/08/19 03:50 KDAG 190350Z AUTO 25014KT 10SM CLR 34/12 A2993 RMK AO2 SLP104 T03440122
KCNO - Chino, California, USA
Distance from station: WSW 50mi, 80km
Updated: 08/18/2018 8:53pm
Clear
Clear
 Wind from WSW
Wind: WSW 8 mph , 13 km/h
Temperature: 77°F , 25°C
Dew Point: 64°F , 18°C
Humidity: 65%
Barometer: 29.98 inHg , 1015.2 hPa
Clouds: Clear
Visibility: 10 miles , 16 km
2018/08/19 03:53 KCNO 190353Z AUTO 24007KT 10SM CLR 25/18 A2998 RMK AO2 SLP145 LAST T02500178 $